sensor_id;sensor_type;location;lat;lon;timestamp;pressure;altitude;pressure_sealevel;temperature;humidity
16100;BME280;8154;50.830;12.082;2023-03-12T00:01:56;99047.91;;;23.39;32.27
16100;BME280;8154;50.830;12.082;2023-03-12T00:04:24;99044.00;;;23.41;32.35
16100;BME280;8154;50.830;12.082;2023-03-12T00:06:50;99041.53;;;23.40;32.16
16100;BME280;8154;50.830;12.082;2023-03-12T00:09:16;99044.41;;;23.38;32.01
16100;BME280;8154;50.830;12.082;2023-03-12T00:11:43;99048.91;;;23.38;32.20
16100;BME280;8154;50.830;12.082;2023-03-12T00:14:09;99047.88;;;23.32;32.17
16100;BME280;8154;50.830;12.082;2023-03-12T00:16:35;99049.31;;;23.35;32.17
16100;BME280;8154;50.830;12.082;2023-03-12T00:19:01;99063.06;;;23.32;32.51
16100;BME280;8154;50.830;12.082;2023-03-12T00:21:27;99055.47;;;23.35;32.37
16100;BME280;8154;50.830;12.082;2023-03-12T00:23:54;99059.16;;;23.41;32.04
16100;BME280;8154;50.830;12.082;2023-03-12T00:26:20;99061.03;;;23.40;32.25
16100;BME280;8154;50.830;12.082;2023-03-12T00:28:47;99069.22;;;23.39;32.36
16100;BME280;8154;50.830;12.082;2023-03-12T00:31:16;99072.09;;;23.37;32.14
16100;BME280;8154;50.830;12.082;2023-03-12T00:33:43;99071.91;;;23.39;32.12
16100;BME280;8154;50.830;12.082;2023-03-12T00:36:09;99072.91;;;23.38;32.04
16100;BME280;8154;50.830;12.082;2023-03-12T00:38:36;99069.44;;;23.37;32.22
16100;BME280;8154;50.830;12.082;2023-03-12T00:41:02;99067.78;;;23.36;32.39
16100;BME280;8154;50.830;12.082;2023-03-12T00:43:28;99071.50;;;23.42;32.22
16100;BME280;8154;50.830;12.082;2023-03-12T00:45:55;99075.78;;;23.43;32.22
16100;BME280;8154;50.830;12.082;2023-03-12T00:48:21;99075.59;;;23.44;32.27
16100;BME280;8154;50.830;12.082;2023-03-12T00:50:47;99075.16;;;23.41;32.09
16100;BME280;8154;50.830;12.082;2023-03-12T00:53:13;99073.53;;;23.40;32.12
16100;BME280;8154;50.830;12.082;2023-03-12T00:55:40;99078.25;;;23.38;32.38
16100;BME280;8154;50.830;12.082;2023-03-12T00:58:06;99067.97;;;23.35;32.18
16100;BME280;8154;50.830;12.082;2023-03-12T01:00:34;99070.66;;;23.35;32.39
16100;BME280;8154;50.830;12.082;2023-03-12T01:03:00;99069.84;;;23.34;32.00
16100;BME280;8154;50.830;12.082;2023-03-12T01:05:26;99072.09;;;23.37;32.15
16100;BME280;8154;50.830;12.082;2023-03-12T01:07:52;99068.81;;;23.42;31.99
16100;BME280;8154;50.830;12.082;2023-03-12T01:10:19;99071.69;;;23.40;32.37
16100;BME280;8154;50.830;12.082;2023-03-12T01:12:46;99064.69;;;23.39;32.40
16100;BME280;8154;50.830;12.082;2023-03-12T01:15:14;99071.69;;;23.40;32.26
16100;BME280;8154;50.830;12.082;2023-03-12T01:17:41;99068.41;;;23.38;32.24
16100;BME280;8154;50.830;12.082;2023-03-12T01:20:09;99070.06;;;23.33;32.45
16100;BME280;8154;50.830;12.082;2023-03-12T01:22:35;99074.16;;;23.35;32.27
16100;BME280;8154;50.830;12.082;2023-03-12T01:25:02;99072.91;;;23.38;32.20
16100;BME280;8154;50.830;12.082;2023-03-12T01:27:29;99069.22;;;23.39;32.11
16100;BME280;8154;50.830;12.082;2023-03-12T01:29:55;99076.59;;;23.37;32.20
16100;BME280;8154;50.830;12.082;2023-03-12T01:32:21;99070.25;;;23.38;32.18
16100;BME280;8154;50.830;12.082;2023-03-12T01:34:47;99070.88;;;23.40;32.05
16100;BME280;8154;50.830;12.082;2023-03-12T01:37:15;99072.91;;;23.38;32.37
16100;BME280;8154;50.830;12.082;2023-03-12T01:39:41;99072.91;;;23.38;32.19
16100;BME280;8154;50.830;12.082;2023-03-12T01:42:07;99074.16;;;23.35;32.22
16100;BME280;8154;50.830;12.082;2023-03-12T01:44:59;99067.97;;;23.35;32.42
16100;BME280;8154;50.830;12.082;2023-03-12T01:47:28;99070.06;;;23.33;32.19
16100;BME280;8154;50.830;12.082;2023-03-12T01:49:57;99069.63;;;23.42;32.38
16100;BME280;8154;50.830;12.082;2023-03-12T01:52:35;99068.41;;;23.38;32.36
16100;BME280;8154;50.830;12.082;2023-03-12T01:55:10;99060.59;;;23.37;32.35
16100;BME280;8154;50.830;12.082;2023-03-12T04:58:26;99089.69;;;23.25;32.15
16100;BME280;8154;50.830;12.082;2023-03-12T05:00:52;99091.94;;;23.22;32.20
16100;BME280;8154;50.830;12.082;2023-03-12T05:03:18;99096.91;;;23.25;32.21
16100;BME280;8154;50.830;12.082;2023-03-12T05:05:44;99087.66;;;23.27;32.14
16100;BME280;8154;50.830;12.082;2023-03-12T05:08:10;99088.91;;;23.25;32.29
16100;BME280;8154;50.830;12.082;2023-03-12T05:10:36;99088.91;;;23.25;32.34
16100;BME280;8154;50.830;12.082;2023-03-12T05:13:02;99086.41;;;23.23;32.18
16100;BME280;8154;50.830;12.082;2023-03-12T05:15:29;99099.94;;;23.22;32.17
16100;BME280;8154;50.830;12.082;2023-03-12T05:17:55;99087.63;;;23.21;32.22
16100;BME280;8154;50.830;12.082;2023-03-12T05:20:21;99093.38;;;23.24;32.12
16100;BME280;8154;50.830;12.082;2023-03-12T05:22:46;99092.53;;;23.24;32.07
16100;BME280;8154;50.830;12.082;2023-03-12T05:25:13;99088.50;;;23.28;32.24
16100;BME280;8154;50.830;12.082;2023-03-12T05:27:39;99088.50;;;23.28;32.22
16100;BME280;8154;50.830;12.082;2023-03-12T05:30:06;99084.94;;;23.21;32.17
16100;BME280;8154;50.830;12.082;2023-03-12T05:32:32;99086.19;;;23.18;32.19
16100;BME280;8154;50.830;12.082;2023-03-12T05:34:58;99082.50;;;23.19;32.46
16100;BME280;8154;50.830;12.082;2023-03-12T05:37:24;99087.63;;;23.21;32.37
16100;BME280;8154;50.830;12.082;2023-03-12T05:39:53;99090.28;;;23.21;32.28
16100;BME280;8154;50.830;12.082;2023-03-12T05:42:19;99091.75;;;23.23;32.23
16100;BME280;8154;50.830;12.082;2023-03-12T05:44:45;99098.75;;;23.31;32.05
16100;BME280;8154;50.830;12.082;2023-03-12T05:47:11;99100.38;;;23.32;32.22
16100;BME280;8154;50.830;12.082;2023-03-12T05:49:37;99095.69;;;23.34;31.96
16100;BME280;8154;50.830;12.082;2023-03-12T05:52:03;99093.84;;;23.34;32.18
16100;BME280;8154;50.830;12.082;2023-03-12T05:54:30;99094.25;;;23.31;32.02
16100;BME280;8154;50.830;12.082;2023-03-12T05:56:56;99099.78;;;23.30;32.09
16100;BME280;8154;50.830;12.082;2023-03-12T08:44:54;99026.19;;;25.51;29.93
16100;BME280;8154;50.830;12.082;2023-03-12T08:47:20;99016.13;;;25.46;29.98
16100;BME280;8154;50.830;12.082;2023-03-12T08:49:46;99010.19;;;25.44;29.78
16100;BME280;8154;50.830;12.082;2023-03-12T08:52:12;99006.06;;;25.42;29.74
16100;BME280;8154;50.830;12.082;2023-03-12T08:54:38;99003.03;;;25.38;29.80
16100;BME280;8154;50.830;12.082;2023-03-12T08:57:04;98990.69;;;25.37;30.09
16100;BME280;8154;50.830;12.082;2023-03-12T08:59:30;99002.16;;;25.44;29.74
16100;BME280;8154;50.830;12.082;2023-03-12T09:01:56;98986.25;;;25.49;29.89
16100;BME280;8154;50.830;12.082;2023-03-12T09:04:22;98986.25;;;25.49;29.99
16100;BME280;8154;50.830;12.082;2023-03-12T09:06:48;98984.16;;;25.51;29.88
16100;BME280;8154;50.830;12.082;2023-03-12T09:09:14;98981.28;;;25.53;29.95
16100;BME280;8154;50.830;12.082;2023-03-12T09:11:40;98965.59;;;25.56;29.64
16100;BME280;8154;50.830;12.082;2023-03-12T09:14:07;98971.34;;;25.60;29.51
16100;BME280;8154;50.830;12.082;2023-03-12T09:16:33;98966.56;;;25.62;29.77
16100;BME280;8154;50.830;12.082;2023-03-12T09:18:59;98964.72;;;25.62;29.58
16100;BME280;8154;50.830;12.082;2023-03-12T09:21:25;98962.88;;;25.63;29.46
16100;BME280;8154;50.830;12.082;2023-03-12T09:23:51;98959.97;;;25.64;29.74
16100;BME280;8154;50.830;12.082;2023-03-12T09:26:21;98962.66;;;25.64;29.56
16100;BME280;8154;50.830;12.082;2023-03-12T09:28:48;98968.22;;;25.63;29.72
16100;BME280;8154;50.830;12.082;2023-03-12T09:31:15;98968.44;;;25.61;29.63
16100;BME280;8154;50.830;12.082;2023-03-12T09:33:40;98969.09;;;25.57;29.71
16100;BME280;8154;50.830;12.082;2023-03-12T09:36:07;98966.06;;;25.53;29.49
16100;BME280;8154;50.830;12.082;2023-03-12T09:38:33;98976.16;;;25.51;29.67
16100;BME280;8154;50.830;12.082;2023-03-12T09:41:02;98967.50;;;25.49;29.52
16100;BME280;8154;50.830;12.082;2023-03-12T09:43:36;98963.81;;;25.50;29.87
16100;BME280;8154;50.830;12.082;2023-03-12T12:40:29;98798.97;;;24.08;31.07
16100;BME280;8154;50.830;12.082;2023-03-12T12:43:14;98795.47;;;24.08;31.12
16100;BME280;8154;50.830;12.082;2023-03-12T12:45:47;98783.31;;;24.12;30.85
16100;BME280;8154;50.830;12.082;2023-03-12T13:46:36;98753.63;;;23.95;31.04
16100;BME280;8154;50.830;12.082;2023-03-12T13:49:09;98749.38;;;23.88;30.99
16100;BME280;8154;50.830;12.082;2023-03-12T13:51:55;98737.47;;;23.84;31.18
16100;BME280;8154;50.830;12.082;2023-03-12T13:54:26;98738.69;;;23.88;31.06
16100;BME280;8154;50.830;12.082;2023-03-12T13:56:59;98736.78;;;23.95;31.21
16100;BME280;8154;50.830;12.082;2023-03-12T13:59:26;98739.06;;;23.98;31.08
16100;BME280;8154;50.830;12.082;2023-03-12T14:01:59;98740.50;;;24.00;31.14
16100;BME280;8154;50.830;12.082;2023-03-12T14:04:38;98737.22;;;23.98;31.26
16100;BME280;8154;50.830;12.082;2023-03-12T14:07:33;98739.88;;;23.98;31.06
16100;BME280;8154;50.830;12.082;2023-03-12T14:13:54;98740.94;;;23.97;30.99
16100;BME280;8154;50.830;12.082;2023-03-12T14:16:32;98729.44;;;23.90;31.07
16100;BME280;8154;50.830;12.082;2023-03-12T14:19:03;98733.53;;;23.93;31.28
16100;BME280;8154;50.830;12.082;2023-03-12T14:21:35;98734.56;;;23.98;30.87
16100;BME280;8154;50.830;12.082;2023-03-12T14:24:05;98737.84;;;24.00;31.05
16100;BME280;8154;50.830;12.082;2023-03-12T14:26:34;98728.78;;;24.01;31.13
16100;BME280;8154;50.830;12.082;2023-03-12T14:29:07;98723.03;;;23.98;30.86
16100;BME280;8154;50.830;12.082;2023-03-12T14:31:35;98724.09;;;23.97;31.06
16100;BME280;8154;50.830;12.082;2023-03-12T14:34:18;98718.31;;;23.93;31.09
16100;BME280;8154;50.830;12.082;2023-03-12T14:37:14;98712.63;;;23.90;31.15
16100;BME280;8154;50.830;12.082;2023-03-12T14:39:48;98713.06;;;23.87;31.32
16100;BME280;8154;50.830;12.082;2023-03-12T14:42:35;98709.97;;;23.90;31.31
16100;BME280;8154;50.830;12.082;2023-03-12T16:46:59;98729.69;;;23.82;31.17
16100;BME280;8154;50.830;12.082;2023-03-12T16:49:25;98726.41;;;23.87;31.10
16100;BME280;8154;50.830;12.082;2023-03-12T16:51:51;98723.72;;;23.87;31.10
16100;BME280;8154;50.830;12.082;2023-03-12T16:54:17;98724.31;;;23.89;30.94
16100;BME280;8154;50.830;12.082;2023-03-12T16:56:45;98726.41;;;23.87;30.91
16100;BME280;8154;50.830;12.082;2023-03-12T16:59:24;98720.03;;;23.88;30.85
16100;BME280;8154;50.830;12.082;2023-03-12T17:01:51;98722.25;;;23.91;30.67
16100;BME280;8154;50.830;12.082;2023-03-12T17:04:17;98722.28;;;23.84;31.10
16100;BME280;8154;50.830;12.082;2023-03-12T17:06:43;98738.91;;;23.86;31.07
16100;BME280;8154;50.830;12.082;2023-03-12T17:09:09;98738.47;;;23.89;31.11
16100;BME280;8154;50.830;12.082;2023-03-12T17:11:36;98741.97;;;23.90;31.02
16100;BME280;8154;50.830;12.082;2023-03-12T17:14:14;98742.13;;;23.95;30.59
16100;BME280;8154;50.830;12.082;2023-03-12T17:16:41;98733.16;;;23.96;30.56
16100;BME280;8154;50.830;12.082;2023-03-12T17:19:07;98742.34;;;23.93;30.81
16100;BME280;8154;50.830;12.082;2023-03-12T17:21:33;98738.91;;;23.86;30.79
16100;BME280;8154;50.830;12.082;2023-03-12T17:23:59;98739.13;;;23.85;30.86
16100;BME280;8154;50.830;12.082;2023-03-12T17:26:25;98740.56;;;23.81;30.92
16100;BME280;8154;50.830;12.082;2023-03-12T17:28:51;98746.53;;;23.83;31.10
16100;BME280;8154;50.830;12.082;2023-03-12T17:31:17;98747.75;;;23.87;31.03
16100;BME280;8154;50.830;12.082;2023-03-12T17:33:43;98761.09;;;23.87;31.05
16100;BME280;8154;50.830;12.082;2023-03-12T17:36:09;98763.91;;;23.92;30.78
16100;BME280;8154;50.830;12.082;2023-03-12T17:38:36;98763.13;;;23.91;30.78
16100;BME280;8154;50.830;12.082;2023-03-12T17:41:03;98769.91;;;23.87;30.95
16100;BME280;8154;50.830;12.082;2023-03-12T17:43:31;98764.34;;;23.89;31.05
16100;BME280;8154;50.830;12.082;2023-03-12T17:46:05;98776.09;;;23.81;31.09
16100;BME280;8154;50.830;12.082;2023-03-12T17:48:32;98763.16;;;23.85;30.86
16100;BME280;8154;50.830;12.082;2023-03-12T17:51:07;98771.16;;;23.85;30.97
16100;BME280;8154;50.830;12.082;2023-03-12T17:53:35;98775.25;;;23.81;31.05
16100;BME280;8154;50.830;12.082;2023-03-12T17:56:05;98760.50;;;23.78;31.08
16100;BME280;8154;50.830;12.082;2023-03-12T17:58:32;98767.88;;;23.83;30.95
16100;BME280;8154;50.830;12.082;2023-03-12T18:00:58;98769.69;;;23.89;30.95
16100;BME280;8154;50.830;12.082;2023-03-12T18:03:25;98776.88;;;23.88;30.89
16100;BME280;8154;50.830;12.082;2023-03-12T18:05:51;98786.31;;;23.91;30.99
16100;BME280;8154;50.830;12.082;2023-03-12T18:08:17;98784.91;;;23.88;30.81
16100;BME280;8154;50.830;12.082;2023-03-12T18:10:43;98775.03;;;23.89;30.64
16100;BME280;8154;50.830;12.082;2023-03-12T18:13:10;98770.97;;;23.80;31.06
16100;BME280;8154;50.830;12.082;2023-03-12T18:15:36;98772.44;;;23.76;31.11
16100;BME280;8154;50.830;12.082;2023-03-12T18:18:02;98769.50;;;23.84;31.24
16100;BME280;8154;50.830;12.082;2023-03-12T18:20:28;98770.72;;;23.88;31.15
16100;BME280;8154;50.830;12.082;2023-03-12T18:22:54;98774.44;;;23.87;30.94
16100;BME280;8154;50.830;12.082;2023-03-12T18:25:21;98772.78;;;23.86;30.78
16100;BME280;8154;50.830;12.082;2023-03-12T18:27:47;98766.81;;;23.84;31.19
16100;BME280;8154;50.830;12.082;2023-03-12T18:30:13;98757.81;;;23.85;31.00
16100;BME280;8154;50.830;12.082;2023-03-12T18:32:40;98763.38;;;23.83;31.08
16100;BME280;8154;50.830;12.082;2023-03-12T18:35:07;98761.34;;;23.79;30.91
16100;BME280;8154;50.830;12.082;2023-03-12T18:37:33;98745.13;;;23.80;31.09
16100;BME280;8154;50.830;12.082;2023-03-12T18:39:59;98764.22;;;23.77;30.95
16100;BME280;8154;50.830;12.082;2023-03-12T18:42:25;98757.84;;;23.78;31.03
16100;BME280;8154;50.830;12.082;2023-03-12T18:44:51;98753.69;;;23.82;30.79
16100;BME280;8154;50.830;12.082;2023-03-12T18:47:17;98761.50;;;23.84;30.91
16100;BME280;8154;50.830;12.082;2023-03-12T18:49:43;98766.44;;;23.87;31.00
16100;BME280;8154;50.830;12.082;2023-03-12T18:52:10;98761.50;;;23.84;30.93
16100;BME280;8154;50.830;12.082;2023-03-12T18:54:35;98759.44;;;23.86;30.75
16100;BME280;8154;50.830;12.082;2023-03-12T18:57:03;98755.16;;;23.85;30.91
16100;BME280;8154;50.830;12.082;2023-03-12T18:59:29;98759.88;;;23.83;31.10
16100;BME280;8154;50.830;12.082;2023-03-12T19:01:55;98757.19;;;23.83;30.83
16100;BME280;8154;50.830;12.082;2023-03-12T19:04:21;98763.78;;;23.80;31.01
16100;BME280;8154;50.830;12.082;2023-03-12T19:06:47;98761.34;;;23.79;30.87
16100;BME280;8154;50.830;12.082;2023-03-12T19:09:15;98750.03;;;23.83;30.92
16100;BME280;8154;50.830;12.082;2023-03-12T19:11:41;98741.19;;;23.83;30.90
16100;BME280;8154;50.830;12.082;2023-03-12T19:14:07;98745.28;;;23.85;30.93
16100;BME280;8154;50.830;12.082;2023-03-12T19:16:34;98754.09;;;23.86;30.76
16100;BME280;8154;50.830;12.082;2023-03-12T19:19:00;98758.44;;;23.87;30.74
16100;BME280;8154;50.830;12.082;2023-03-12T19:21:27;98762.09;;;23.86;30.81
16100;BME280;8154;50.830;12.082;2023-03-12T19:23:53;98760.09;;;23.81;31.13
16100;BME280;8154;50.830;12.082;2023-03-12T19:26:20;98760.28;;;23.80;30.83
16100;BME280;8154;50.830;12.082;2023-03-12T19:28:46;98775.66;;;23.84;31.06
16100;BME280;8154;50.830;12.082;2023-03-12T19:31:13;98775.88;;;23.83;30.73
16100;BME280;8154;50.830;12.082;2023-03-12T19:33:41;98771.16;;;23.85;31.00
16100;BME280;8154;50.830;12.082;2023-03-12T19:36:07;98774.44;;;23.87;31.04
16100;BME280;8154;50.830;12.082;2023-03-12T19:38:34;98773.41;;;23.88;30.82
16100;BME280;8154;50.830;12.082;2023-03-12T19:41:01;98764.13;;;23.90;30.85
16100;BME280;8154;50.830;12.082;2023-03-12T19:43:29;98774.00;;;23.90;30.94
16100;BME280;8154;50.830;12.082;2023-03-12T19:45:56;98765.81;;;23.85;31.04
16100;BME280;8154;50.830;12.082;2023-03-12T19:48:22;98758.66;;;23.79;31.11
16100;BME280;8154;50.830;12.082;2023-03-12T19:50:50;98758.66;;;23.79;31.12
16100;BME280;8154;50.830;12.082;2023-03-12T19:53:21;98761.13;;;23.80;30.95
16100;BME280;8154;50.830;12.082;2023-03-12T19:55:48;98749.38;;;23.88;30.76
16100;BME280;8154;50.830;12.082;2023-03-12T19:58:15;98752.44;;;23.91;30.78
16100;BME280;8154;50.830;12.082;2023-03-12T20:00:42;98751.41;;;23.92;30.97
16100;BME280;8154;50.830;12.082;2023-03-12T20:03:09;98750.34;;;23.93;30.91
16100;BME280;8154;50.830;12.082;2023-03-12T20:05:36;98768.66;;;23.90;30.89
16100;BME280;8154;50.830;12.082;2023-03-12T20:08:02;98763.34;;;23.90;31.05
16100;BME280;8154;50.830;12.082;2023-03-12T20:10:30;98769.31;;;23.85;31.06
16100;BME280;8154;50.830;12.082;2023-03-12T20:12:57;98780.81;;;23.79;30.80
16100;BME280;8154;50.830;12.082;2023-03-12T20:15:23;98781.00;;;23.84;30.92
16100;BME280;8154;50.830;12.082;2023-03-12T20:17:52;98777.31;;;23.85;30.77
16100;BME280;8154;50.830;12.082;2023-03-12T20:20:25;98771.56;;;23.88;30.75
16100;BME280;8154;50.830;12.082;2023-03-12T20:22:52;98773.78;;;23.91;30.92
16100;BME280;8154;50.830;12.082;2023-03-12T20:25:18;98771.91;;;23.92;30.86
16100;BME280;8154;50.830;12.082;2023-03-12T20:27:45;98774.66;;;23.85;31.04
16100;BME280;8154;50.830;12.082;2023-03-12T20:30:12;98772.56;;;23.87;31.15
16100;BME280;8154;50.830;12.082;2023-03-12T20:32:40;98770.13;;;23.86;31.20
16100;BME280;8154;50.830;12.082;2023-03-12T20:35:08;98766.81;;;23.84;30.98
16100;BME280;8154;50.830;12.082;2023-03-12T20:37:34;98777.13;;;23.80;30.98
16100;BME280;8154;50.830;12.082;2023-03-12T20:40:00;98777.72;;;23.82;31.12
16100;BME280;8154;50.830;12.082;2023-03-12T20:42:27;98784.94;;;23.82;30.91
16100;BME280;8154;50.830;12.082;2023-03-12T20:44:53;98769.25;;;23.92;30.88
16100;BME280;8154;50.830;12.082;2023-03-12T20:47:19;98782.59;;;23.92;30.82
16100;BME280;8154;50.830;12.082;2023-03-12T20:49:46;98777.25;;;23.92;30.82
16100;BME280;8154;50.830;12.082;2023-03-12T20:52:12;98779.34;;;23.90;30.88
16100;BME280;8154;50.830;12.082;2023-03-12T20:54:38;98768.66;;;23.90;30.99
16100;BME280;8154;50.830;12.082;2023-03-12T20:57:04;98766.44;;;23.87;30.68
16100;BME280;8154;50.830;12.082;2023-03-12T20:59:30;98770.31;;;23.84;31.04
16100;BME280;8154;50.830;12.082;2023-03-12T21:01:56;98774.25;;;23.82;30.82
16100;BME280;8154;50.830;12.082;2023-03-12T21:04:22;98759.47;;;23.79;31.08
16100;BME280;8154;50.830;12.082;2023-03-12T21:06:48;98766.22;;;23.88;30.88
16100;BME280;8154;50.830;12.082;2023-03-12T21:09:16;98756.75;;;23.86;30.70
16100;BME280;8154;50.830;12.082;2023-03-12T21:11:43;98756.94;;;23.91;30.78
16100;BME280;8154;50.830;12.082;2023-03-12T21:14:09;98752.03;;;23.88;31.05
16100;BME280;8154;50.830;12.082;2023-03-12T21:16:35;98751.00;;;23.89;30.84
16100;BME280;8154;50.830;12.082;2023-03-12T21:19:02;98759.88;;;23.83;30.91
16100;BME280;8154;50.830;12.082;2023-03-12T21:21:40;98746.13;;;23.79;30.98
16100;BME280;8154;50.830;12.082;2023-03-12T21:24:07;98739.38;;;23.77;31.11
16100;BME280;8154;50.830;12.082;2023-03-12T21:26:33;98737.91;;;23.81;31.30
16100;BME280;8154;50.830;12.082;2023-03-12T21:29:02;98736.47;;;23.85;31.08
16100;BME280;8154;50.830;12.082;2023-03-12T21:31:32;98736.44;;;23.91;30.99
16100;BME280;8154;50.830;12.082;2023-03-12T21:33:58;98732.50;;;23.94;30.93
16100;BME280;8154;50.830;12.082;2023-03-12T21:36:25;98732.31;;;23.89;30.88
16100;BME280;8154;50.830;12.082;2023-03-12T21:38:51;98730.47;;;23.89;30.78
16100;BME280;8154;50.830;12.082;2023-03-12T21:41:19;98723.13;;;23.85;30.87
16100;BME280;8154;50.830;12.082;2023-03-12T21:43:46;98714.47;;;23.89;30.85
16100;BME280;8154;50.830;12.082;2023-03-12T22:44:29;98704.03;;;23.81;31.08
16100;BME280;8154;50.830;12.082;2023-03-12T22:46:56;98708.97;;;23.78;31.07
16100;BME280;8154;50.830;12.082;2023-03-12T22:49:22;98706.31;;;23.78;31.15
16100;BME280;8154;50.830;12.082;2023-03-12T22:51:48;98698.75;;;23.75;31.15
16100;BME280;8154;50.830;12.082;2023-03-12T22:54:14;98700.44;;;23.69;31.29
16100;BME280;8154;50.830;12.082;2023-03-12T22:56:41;98703.09;;;23.69;31.32
16100;BME280;8154;50.830;12.082;2023-03-12T22:59:07;98699.03;;;23.67;31.09
16100;BME280;8154;50.830;12.082;2023-03-12T23:01:32;98701.47;;;23.68;31.03
16100;BME280;8154;50.830;12.082;2023-03-12T23:03:58;98692.22;;;23.71;31.27
16100;BME280;8154;50.830;12.082;2023-03-12T23:06:26;98691.78;;;23.74;30.97
16100;BME280;8154;50.830;12.082;2023-03-12T23:08:54;98690.75;;;23.75;31.04
16100;BME280;8154;50.830;12.082;2023-03-12T23:11:21;98687.06;;;23.76;31.10
16100;BME280;8154;50.830;12.082;2023-03-12T23:13:50;98688.69;;;23.77;30.93
16100;BME280;8154;50.830;12.082;2023-03-12T23:16:18;98688.06;;;23.75;31.14
16100;BME280;8154;50.830;12.082;2023-03-12T23:18:45;98684.22;;;23.71;31.06
16100;BME280;8154;50.830;12.082;2023-03-12T23:21:14;98689.16;;;23.67;31.03
16100;BME280;8154;50.830;12.082;2023-03-12T23:23:40;98693.09;;;23.65;31.41
16100;BME280;8154;50.830;12.082;2023-03-12T23:26:15;98689.16;;;23.67;31.18
16100;BME280;8154;50.830;12.082;2023-03-12T23:28:42;98692.84;;;23.73;31.14
16100;BME280;8154;50.830;12.082;2023-03-12T23:31:09;98682.16;;;23.73;31.26
16100;BME280;8154;50.830;12.082;2023-03-12T23:33:36;98685.19;;;23.76;31.06
16100;BME280;8154;50.830;12.082;2023-03-12T23:36:10;98683.03;;;23.67;31.14
16100;BME280;8154;50.830;12.082;2023-03-12T23:38:37;98684.66;;;23.68;31.33
16100;BME280;8154;50.830;12.082;2023-03-12T23:41:11;98677.25;;;23.70;31.12
16100;BME280;8154;50.830;12.082;2023-03-12T23:43:38;98679.31;;;23.68;31.08
16100;BME280;8154;50.830;12.082;2023-03-12T23:46:05;98682.63;;;23.63;31.21
16100;BME280;8154;50.830;12.082;2023-03-12T23:48:34;98683.19;;;23.65;31.26
16100;BME280;8154;50.830;12.082;2023-03-12T23:51:11;98681.16;;;23.67;31.14
16100;BME280;8154;50.830;12.082;2023-03-12T23:53:38;98685.84;;;23.72;31.05
16100;BME280;8154;50.830;12.082;2023-03-12T23:56:07;98687.50;;;23.73;31.22
16100;BME280;8154;50.830;12.082;2023-03-12T23:58:34;98681.31;;;23.72;31.26
